Time;durP1;ratioP1;P1;durP2;ratioP2;P2;SDS_P1;SDS_P2;PMS_P1;PMS_P2;Temp;Humidity;BMP_temperature;BMP_pressure;BME280_temperature;BME280_humidity;BME280_pressure;Samples;Min_cycle;Max_cycle;Signal;HPM_P1;HPM_P2
2022/05/12 00:01:17;;;;;;;7.20;2.37;;;;;;;13.04;73.31;101223.34;5215675;28;20026;-82
2022/05/12 00:03:49;;;;;;;7.53;2.13;;;;;;;12.88;73.46;101227.94;5215734;28;20038;-83
2022/05/12 00:06:20;;;;;;;11.47;3.23;;;;;;;12.78;73.79;101229.84;5216185;28;20791;-85
2022/05/12 00:08:51;;;;;;;8.23;2.23;;;;;;;12.80;73.84;101237.66;5215586;28;20109;-83
2022/05/12 00:11:23;;;;;;;8.07;2.40;;;;;;;12.70;73.88;101229.09;5215466;28;20045;-84
2022/05/12 00:13:54;;;;;;;9.13;2.43;;;;;;;12.62;74.06;101236.19;5216280;28;20033;-83
2022/05/12 00:16:25;;;;;;;9.17;3.13;;;;;;;12.60;74.46;101230.97;5215593;28;20113;-85
2022/05/12 00:18:57;;;;;;;7.07;2.20;;;;;;;12.53;74.63;101235.41;5215716;28;20036;-83
2022/05/12 00:21:30;;;;;;;9.27;2.53;;;;;;;12.58;74.42;101232.75;5215915;28;20045;-82
2022/05/12 00:24:02;;;;;;;6.32;2.50;;;;;;;12.54;74.86;101239.78;5215274;28;20037;-82
2022/05/12 00:26:36;;;;;;;8.18;2.50;;;;;;;12.32;75.32;101252.25;5215246;28;20018;-82
2022/05/12 00:29:08;;;;;;;6.10;2.72;;;;;;;12.31;75.36;101242.69;5215151;28;20029;-82
2022/05/12 00:31:42;;;;;;;9.50;2.53;;;;;;;12.21;75.95;101246.31;5216280;28;20045;-85
2022/05/12 00:34:16;;;;;;;9.18;3.10;;;;;;;12.18;76.31;101251.56;5216008;28;20405;-84
2022/05/12 00:36:48;;;;;;;7.25;2.15;;;;;;;12.11;76.12;101256.00;5216250;28;20038;-83
2022/05/12 00:39:20;;;;;;;6.55;2.15;;;;;;;12.07;76.74;101263.88;5217040;28;20117;-82
2022/05/12 00:41:51;;;;;;;8.20;2.23;;;;;;;12.08;76.69;101273.47;5215740;28;20184;-81
2022/05/12 00:44:23;;;;;;;8.30;2.10;;;;;;;11.99;77.12;101267.47;5216328;28;20041;-82
2022/05/12 00:46:54;;;;;;;7.63;2.17;;;;;;;11.92;77.32;101271.00;5198856;28;20033;-82
2022/05/12 00:49:31;;;;;;;6.57;2.20;;;;;;;11.86;77.74;101271.94;5219489;28;20125;-83
2022/05/12 00:52:13;;;;;;;7.63;2.53;;;;;;;11.84;77.92;101270.19;5201223;28;20034;-82
2022/05/12 00:54:55;;;;;;;7.55;2.20;;;;;;;11.79;77.91;101269.38;5219452;28;20034;-83
2022/05/12 00:57:40;;;;;;;11.25;2.70;;;;;;;11.75;78.44;101280.72;5219542;28;20406;-83
2022/05/12 01:00:13;;;;;;;5.18;2.25;;;;;;;11.65;78.75;101278.19;5207237;28;20121;-83
2022/05/12 01:02:48;;;;;;;7.45;2.03;;;;;;;11.59;79.43;101275.66;5235684;28;20069;-84
2022/05/12 01:05:22;;;;;;;4.97;2.17;;;;;;;11.54;79.33;101285.25;5240569;28;20060;-83
2022/05/12 01:07:55;;;;;;;6.03;2.50;;;;;;;11.53;79.70;101288.78;5222061;28;20030;-84
2022/05/12 01:10:29;;;;;;;5.78;2.05;;;;;;;11.54;79.83;101285.25;5222039;28;20038;-83
2022/05/12 01:13:00;;;;;;;7.88;2.65;;;;;;;11.44;80.15;101289.69;5220768;28;20519;-84
2022/05/12 01:15:32;;;;;;;5.07;2.33;;;;;;;11.39;80.77;101286.25;5221288;28;20030;-85
2022/05/12 01:18:17;;;;;;;9.93;2.43;;;;;;;11.32;81.04;101293.28;5220145;28;20033;-86
2022/05/12 01:20:50;;;;;;;8.10;3.00;;;;;;;11.35;81.14;101295.00;5219502;28;20064;-84
2022/05/12 01:23:36;;;;;;;6.80;2.58;;;;;;;11.30;81.31;101297.66;5217862;28;20038;-83
2022/05/12 01:26:12;;;;;;;8.98;2.83;;;;;;;11.28;81.17;101303.75;5218093;28;20037;-83
2022/05/12 01:28:44;;;;;;;7.30;2.50;;;;;;;11.24;81.96;101299.44;5217934;28;20416;-83
2022/05/12 01:31:18;;;;;;;6.50;2.57;;;;;;;11.19;82.76;101306.41;5218017;28;20034;-82
2022/05/12 01:33:51;;;;;;;6.65;2.65;;;;;;;11.16;83.03;101309.03;5216847;28;20439;-83
2022/05/12 01:36:23;;;;;;;11.57;3.20;;;;;;;11.21;83.54;101313.38;5217734;28;20092;-83
2022/05/12 01:38:55;;;;;;;10.77;3.10;;;;;;;11.16;84.34;101315.16;5217586;28;20105;-83
2022/05/12 01:41:26;;;;;;;10.88;3.13;;;;;;;11.12;84.35;101321.25;5217815;28;20032;-83
2022/05/12 01:44:00;;;;;;;14.43;3.73;;;;;;;11.17;84.16;101318.63;5216410;28;20026;-83
2022/05/12 01:46:31;;;;;;;8.68;2.88;;;;;;;11.14;84.13;101329.97;5217196;28;20048;-82
2022/05/12 01:49:03;;;;;;;14.00;3.30;;;;;;;11.03;84.74;101329.13;5216739;28;20038;-83
2022/05/12 01:51:35;;;;;;;10.33;3.03;;;;;;;10.95;85.04;101335.28;5217397;28;20150;-86
2022/05/12 01:54:07;;;;;;;9.90;3.10;;;;;;;10.97;85.13;101326.59;5217737;28;20090;-84
2022/05/12 01:56:39;;;;;;;15.20;3.60;;;;;;;10.93;84.99;101334.44;5217777;28;20105;-82
2022/05/12 01:59:10;;;;;;;14.97;3.57;;;;;;;10.90;85.75;101333.56;5217710;28;20500;-84
2022/05/12 02:01:41;;;;;;;16.43;3.43;;;;;;;10.77;86.38;101345.81;5217186;28;20026;-83
2022/05/12 02:04:14;;;;;;;9.00;4.00;;;;;;;10.86;85.69;101348.34;5199634;28;20034;-84
2022/05/12 02:06:45;;;;;;;9.57;3.20;;;;;;;10.90;85.21;101351.81;5217463;28;20068;-85
2022/05/12 02:09:17;;;;;;;11.10;3.87;;;;;;;10.76;85.71;101357.09;5217221;28;20057;-85
2022/05/12 02:11:48;;;;;;;10.40;3.40;;;;;;;10.77;85.50;101364.06;5217657;28;20080;-83
2022/05/12 02:14:20;;;;;;;10.70;2.87;;;;;;;10.67;86.07;101364.97;5216818;28;20022;-85
2022/05/12 02:16:51;;;;;;;14.40;3.47;;;;;;;10.60;86.40;101364.13;5219193;28;20032;-85
2022/05/12 02:19:23;;;;;;;12.73;4.17;;;;;;;10.55;87.02;101369.34;5216756;28;20034;-84
2022/05/12 02:21:56;;;;;;;10.48;3.30;;;;;;;10.67;86.26;101375.38;5199417;28;20030;-83
2022/05/12 02:24:27;;;;;;;12.13;3.33;;;;;;;10.66;86.37;101381.47;5216294;28;20895;-83
2022/05/12 02:26:59;;;;;;;12.63;3.63;;;;;;;10.52;86.65;101378.94;5216958;28;20022;-83
2022/05/12 02:29:30;;;;;;;10.83;3.97;;;;;;;10.39;87.69;101375.47;5215962;28;20034;-82
2022/05/12 02:32:02;;;;;;;11.00;3.40;;;;;;;10.48;87.33;101379.78;5216444;28;20385;-82
2022/05/12 02:34:34;;;;;;;11.73;2.90;;;;;;;10.39;87.10;101385.91;5215587;28;20355;-81
2022/05/12 02:37:06;;;;;;;10.02;3.30;;;;;;;10.38;86.89;101385.06;5216494;28;20120;-82
2022/05/12 02:39:43;;;;;;;13.67;4.00;;;;;;;10.30;87.39;101388.50;5216088;28;20536;-83
2022/05/12 02:42:14;;;;;;;11.43;3.78;;;;;;;10.20;88.14;101388.50;5197827;28;20401;-82
2022/05/12 02:44:45;;;;;;;11.63;3.53;;;;;;;10.21;87.80;101387.66;5215247;28;20029;-83
2022/05/12 02:47:17;;;;;;;11.33;4.07;;;;;;;10.11;88.12;101393.75;5215833;28;20223;-83
2022/05/12 02:49:49;;;;;;;8.82;2.90;;;;;;;10.14;88.85;101398.97;5215195;28;20065;-83
2022/05/12 02:52:20;;;;;;;10.93;3.57;;;;;;;10.18;88.33;101407.63;5216016;28;20033;-84
2022/05/12 02:54:52;;;;;;;13.97;3.80;;;;;;;10.09;88.64;101405.88;5215988;28;20033;-84
2022/05/12 02:57:23;;;;;;;17.20;4.10;;;;;;;10.08;89.08;101404.16;5216003;28;20026;-83
2022/05/12 02:59:55;;;;;;;14.87;5.83;;;;;;;10.11;89.36;101404.16;5215797;28;20033;-82
2022/05/12 03:02:26;;;;;;;15.47;4.90;;;;;;;10.14;89.08;101406.78;5215835;28;20033;-83
2022/05/12 03:04:58;;;;;;;13.90;5.07;;;;;;;9.99;90.15;101394.59;5214635;28;20061;-83
2022/05/12 03:07:29;;;;;;;12.93;4.53;;;;;;;10.04;90.42;101394.59;5215949;28;20026;-83
2022/05/12 03:10:00;;;;;;;14.47;5.80;;;;;;;10.00;90.57;101411.13;5215327;28;20030;-83
2022/05/12 03:12:32;;;;;;;15.43;5.67;;;;;;;10.00;91.06;101411.97;5214760;28;20038;-84
2022/05/12 03:15:06;;;;;;;12.47;5.40;;;;;;;9.95;91.10;101408.50;5215285;28;20037;-83
2022/05/12 03:17:37;;;;;;;17.38;6.13;;;;;;;9.92;91.83;101416.31;5198490;28;20029;-83
2022/05/12 03:20:10;;;;;;;18.40;6.33;;;;;;;9.88;93.24;101414.56;5214992;28;20040;-83
2022/05/12 03:22:41;;;;;;;17.52;6.60;;;;;;;9.92;92.72;101408.50;5197369;28;20037;-83
2022/05/12 03:25:15;;;;;;;18.70;6.97;;;;;;;9.79;92.57;101417.19;5214753;28;20044;-84
2022/05/12 03:27:47;;;;;;;16.52;6.82;;;;;;;9.80;93.21;101416.31;5198150;28;20377;-84
2022/05/12 03:30:22;;;;;;;13.93;6.60;;;;;;;9.72;93.97;101415.44;5215299;28;20034;-83
2022/05/12 03:32:53;;;;;;;16.55;7.45;;;;;;;9.67;94.18;101413.69;5198581;28;20029;-82
2022/05/12 03:35:25;;;;;;;16.30;7.00;;;;;;;9.66;94.79;101427.59;5214918;28;20088;-83
2022/05/12 03:37:56;;;;;;;16.83;7.53;;;;;;;9.66;95.03;101426.72;5201945;28;20030;-82
2022/05/12 03:40:27;;;;;;;20.70;8.73;;;;;;;9.68;94.81;101435.41;5216886;28;20030;-83
2022/05/12 03:42:59;;;;;;;18.43;8.03;;;;;;;9.68;95.18;101440.59;5215288;28;20104;-82
2022/05/12 03:45:33;;;;;;;19.77;8.23;;;;;;;9.64;96.57;101446.66;5215590;28;20032;-83
2022/05/12 03:48:05;;;;;;;24.60;9.68;;;;;;;9.63;96.71;101443.19;5214818;28;20054;-81
2022/05/12 03:50:36;;;;;;;32.77;11.27;;;;;;;9.65;97.23;101451.88;5214608;28;20099;-82
2022/05/12 03:53:07;;;;;;;19.73;9.63;;;;;;;9.70;96.97;101438.88;5216945;28;20087;-82
2022/05/12 03:55:39;;;;;;;23.80;10.60;;;;;;;9.68;98.11;101457.09;5215887;28;20032;-84
2022/05/12 03:58:11;;;;;;;26.70;9.60;;;;;;;9.72;97.87;101457.94;5199455;28;20131;-83
2022/05/12 04:00:43;;;;;;;25.85;11.32;;;;;;;9.72;98.52;101463.16;5218080;28;20022;-85
2022/05/12 04:03:14;;;;;;;24.70;12.17;;;;;;;9.70;98.39;101459.69;5216761;28;20026;-84
2022/05/12 04:05:46;;;;;;;25.50;12.00;;;;;;;9.68;99.00;101459.69;5216834;28;20034;-83
2022/05/12 04:08:18;;;;;;;24.70;11.48;;;;;;;9.65;98.63;101464.88;5216381;28;20026;-82
2022/05/12 04:10:51;;;;;;;32.87;12.60;;;;;;;9.66;98.80;101468.38;5200362;28;20066;-83
2022/05/12 04:13:23;;;;;;;31.48;12.20;;;;;;;9.66;99.51;101476.19;5215894;28;20026;-84
2022/05/12 04:15:55;;;;;;;24.25;13.73;;;;;;;9.68;99.79;101480.53;5215953;28;20030;-83
2022/05/12 04:18:26;;;;;;;22.93;14.33;;;;;;;9.72;99.83;101488.34;5197747;28;20036;-81
2022/05/12 04:20:58;;;;;;;27.60;15.90;;;;;;;9.70;100.00;101490.06;5214537;28;20037;-82
2022/05/12 04:23:29;;;;;;;38.43;16.03;;;;;;;9.71;100.00;101484.88;5218133;28;20084;-85
2022/05/12 04:26:04;;;;;;;28.13;15.00;;;;;;;9.72;100.00;101483.13;5221179;28;20026;-85
2022/05/12 04:28:36;;;;;;;35.85;16.02;;;;;;;9.78;100.00;101499.63;5222640;28;20426;-85
2022/05/12 04:31:08;;;;;;;31.70;14.85;;;;;;;9.82;100.00;101505.69;5204990;28;20026;-85
2022/05/12 04:36:29;;;;;;;30.50;15.43;;;;;;;9.86;100.00;101502.25;5221911;28;20037;-84
2022/05/12 04:39:00;;;;;;;30.67;15.37;;;;;;;9.92;100.00;101509.19;5222377;28;20026;-85
2022/05/12 04:41:32;;;;;;;32.60;16.27;;;;;;;9.96;100.00;101508.34;5222703;28;20105;-82
2022/05/12 04:44:06;;;;;;;34.53;16.30;;;;;;;9.98;100.00;101517.03;5205861;28;20045;-84
2022/05/12 04:46:40;;;;;;;30.80;17.15;;;;;;;10.01;100.00;101519.63;5221823;28;20085;-85
2022/05/12 04:49:13;;;;;;;39.83;17.27;;;;;;;10.02;100.00;101516.16;5255167;28;20072;-85
2022/05/12 04:51:45;;;;;;;32.35;17.88;;;;;;;10.05;100.00;101513.56;5255249;28;20034;-84
2022/05/12 04:54:16;;;;;;;30.00;16.93;;;;;;;10.12;100.00;101514.44;5234613;28;20040;-85
2022/05/12 04:56:50;;;;;;;35.63;17.43;;;;;;;10.17;100.00;101517.91;5238053;28;20016;-86
2022/05/12 04:59:21;;;;;;;37.70;18.20;;;;;;;10.24;100.00;101517.06;5254504;28;20040;-83
2022/05/12 05:01:53;;;;;;;35.00;17.93;;;;;;;10.27;100.00;101522.28;5248923;28;20025;-85
2022/05/12 05:04:24;;;;;;;29.90;18.43;;;;;;;10.33;100.00;101527.50;5243720;28;20033;-85
2022/05/12 05:06:57;;;;;;;34.50;18.47;;;;;;;10.36;100.00;101532.72;5242145;28;20029;-85
2022/05/12 05:09:28;;;;;;;;;;;;;;;10.41;100.00;101537.94;5242703;28;20790;-86
2022/05/12 05:11:59;;;;;;;37.08;19.60;;;;;;;10.47;100.00;101542.28;5241532;28;19936;-86
2022/05/12 05:14:31;;;;;;;32.83;18.40;;;;;;;10.51;100.00;101539.69;5226463;28;20072;-85
2022/05/12 05:17:03;;;;;;;30.83;19.33;;;;;;;10.57;100.00;101554.44;5242216;28;20085;-85
2022/05/12 05:19:35;;;;;;;34.60;19.90;;;;;;;10.68;100.00;101551.84;5224302;28;20048;-85
2022/05/12 05:22:06;;;;;;;35.15;21.48;;;;;;;10.71;100.00;101551.84;5241870;28;20026;-85
2022/05/12 05:24:38;;;;;;;35.87;20.97;;;;;;;10.73;100.00;101550.09;5242593;28;20540;-86
2022/05/12 05:27:09;;;;;;;33.23;21.83;;;;;;;10.86;100.00;101562.22;5223706;28;20091;-85
2022/05/12 05:29:41;;;;;;;39.53;22.60;;;;;;;10.86;100.00;101557.00;5224205;28;20025;-85
2022/05/12 05:32:13;;;;;;;35.25;22.48;;;;;;;10.92;100.00;101574.41;5224558;28;20033;-86
2022/05/12 05:34:44;;;;;;;37.17;23.37;;;;;;;10.99;100.00;101570.91;5242701;28;20044;-85
2022/05/12 05:37:18;;;;;;;41.10;23.10;;;;;;;11.06;100.00;101576.97;5243680;28;20467;-84
2022/05/12 05:39:49;;;;;;;40.30;23.00;;;;;;;11.10;100.00;101573.50;5224286;28;20053;-85
2022/05/12 05:42:22;;;;;;;38.07;22.00;;;;;;;11.20;100.00;101582.16;5241183;28;20092;-86
2022/05/12 05:44:53;;;;;;;;;;;;;;;11.25;100.00;101588.25;5224243;28;20364;-85
2022/05/12 05:47:25;;;;;;;40.35;22.45;;;;;;;11.30;100.00;101600.41;5241911;28;19920;-84
2022/05/12 05:49:56;;;;;;;37.33;22.10;;;;;;;11.35;99.74;101604.75;5225493;28;20133;-86
2022/05/12 05:55:17;;;;;;;39.00;24.05;;;;;;;11.55;100.00;101618.59;5242250;28;20021;-84
2022/05/12 05:57:52;;;;;;;45.03;25.43;;;;;;;11.64;99.42;101617.69;5223056;28;20029;-84
2022/05/12 06:00:23;;;;;;;33.97;24.00;;;;;;;11.70;99.23;101628.13;5224979;28;20045;-86
2022/05/12 06:02:55;;;;;;;36.77;24.67;;;;;;;11.79;98.73;101629.84;5223871;28;20037;-86
2022/05/12 06:05:27;;;;;;;36.53;24.03;;;;;;;11.89;98.45;101628.91;5241150;28;20030;-82
2022/05/12 06:07:58;;;;;;;31.70;24.60;;;;;;;11.93;97.86;101630.69;5240427;28;20022;-84
2022/05/12 06:10:30;;;;;;;41.10;22.87;;;;;;;12.00;97.44;101645.44;5223409;28;20033;-85
2022/05/12 06:13:02;;;;;;;38.30;25.07;;;;;;;12.06;96.94;101641.06;5223559;28;20938;-84
2022/05/12 06:15:35;;;;;;;32.40;24.77;;;;;;;12.08;96.50;101645.41;5225126;28;20139;-85
2022/05/12 06:18:17;;;;;;;31.17;24.00;;;;;;;12.20;96.05;101645.34;5242952;28;20469;-86
2022/05/12 06:20:49;;;;;;;35.45;22.23;;;;;;;12.35;95.64;101644.38;5224663;28;20178;-85
2022/05/12 06:23:20;;;;;;;37.35;22.77;;;;;;;12.49;94.60;101651.25;5241544;28;20030;-85
2022/05/12 06:25:52;;;;;;;29.60;22.77;;;;;;;12.57;93.95;101658.19;5245193;28;20604;-85
2022/05/12 06:28:23;;;;;;;33.33;21.10;;;;;;;12.76;93.22;101653.66;5233657;28;20044;-84
2022/05/12 06:30:55;;;;;;;36.17;20.87;;;;;;;13.01;92.62;101645.63;5254549;28;20025;-84
2022/05/12 06:33:27;;;;;;;34.13;21.43;;;;;;;13.10;90.47;101660.38;5231338;28;20040;-85
2022/05/12 06:36:02;;;;;;;34.28;21.88;;;;;;;13.03;90.03;101662.16;5248754;28;20049;-85
2022/05/12 06:38:35;;;;;;;33.20;20.17;;;;;;;13.29;89.03;101663.69;5243390;28;20109;-82
2022/05/12 06:41:06;;;;;;;32.22;20.65;;;;;;;13.34;88.01;101661.91;5224452;28;20114;-86
2022/05/12 06:43:38;;;;;;;36.17;20.03;;;;;;;13.39;87.12;101670.56;5226798;28;20099;-87
2022/05/12 06:46:09;;;;;;;34.20;21.60;;;;;;;13.18;86.30;101673.38;5242115;28;20084;-84
2022/05/12 06:48:42;;;;;;;24.20;18.37;;;;;;;13.15;86.54;101671.66;5242850;28;20033;-84
2022/05/12 06:51:14;;;;;;;28.75;20.25;;;;;;;13.12;86.76;101676.91;5222892;28;20065;-85
2022/05/12 06:53:46;;;;;;;27.98;20.40;;;;;;;13.31;86.77;101681.13;5240478;28;20045;-84
2022/05/12 06:56:17;;;;;;;25.67;17.33;;;;;;;13.65;85.44;101688.66;5224084;28;20025;-84
2022/05/12 06:58:48;;;;;;;31.10;18.87;;;;;;;13.99;82.56;101692.59;5241957;28;20029;-85
2022/05/12 07:01:20;;;;;;;23.50;17.30;;;;;;;14.15;80.93;101682.78;5242582;28;20033;-84
2022/05/12 07:03:53;;;;;;;25.90;17.60;;;;;;;14.31;79.55;101693.94;5224465;28;20039;-86
2022/05/12 07:06:25;;;;;;;22.45;16.88;;;;;;;14.25;78.95;101691.41;5241859;28;20029;-86
2022/05/12 07:08:57;;;;;;;24.60;16.37;;;;;;;14.20;78.76;101701.97;5242622;28;20029;-84
2022/05/12 07:11:28;;;;;;;26.57;17.87;;;;;;;13.95;79.31;101699.66;5241147;28;20044;-86
2022/05/12 07:13:59;;;;;;;27.53;17.83;;;;;;;13.78;79.32;101698.97;5241333;28;20146;-83
2022/05/12 07:16:34;;;;;;;22.97;15.63;;;;;;;13.62;78.13;101703.50;5223528;28;20345;-86
2022/05/12 07:19:05;;;;;;;25.67;15.50;;;;;;;13.59;78.34;101700.97;5243633;28;20041;-84
2022/05/12 07:27:18;;;;;;;21.10;12.40;;;;;;;13.94;76.31;101712.78;5251902;28;20132;-87
2022/05/12 07:29:49;;;;;;;20.13;12.98;;;;;;;14.17;74.81;101710.75;5254801;28;20029;-86
2022/05/12 07:32:22;;;;;;;20.83;14.10;;;;;;;14.62;73.57;101714.53;5251984;28;20021;-85
2022/05/12 07:34:53;;;;;;;16.77;12.77;;;;;;;14.79;71.34;101715.16;5255439;28;20255;-85
2022/05/12 07:37:28;;;;;;;17.40;13.97;;;;;;;14.88;70.96;101714.16;5252924;28;20036;-84
2022/05/12 07:39:59;;;;;;;18.98;14.10;;;;;;;15.13;71.62;101719.84;5256483;28;20129;-83
2022/05/12 07:42:36;;;;;;;24.07;13.33;;;;;;;15.43;70.40;101721.06;5256702;28;20428;-85
2022/05/12 07:45:08;;;;;;;17.58;13.27;;;;;;;15.21;69.79;101725.84;5258130;28;20012;-84
2022/05/12 07:47:40;;;;;;;20.95;12.50;;;;;;;14.82;70.79;101732.63;5252614;28;20079;-84
2022/05/12 07:50:11;;;;;;;24.23;13.77;;;;;;;14.80;71.59;101732.63;5242137;28;20053;-83
2022/05/12 07:52:45;;;;;;;21.53;12.67;;;;;;;15.08;70.05;101732.19;5241132;28;20049;-85
2022/05/12 07:55:20;;;;;;;14.88;11.73;;;;;;;15.36;68.04;101729.97;5224536;28;20963;-84
2022/05/12 07:57:51;;;;;;;12.48;8.88;;;;;;;15.28;63.76;101730.09;5243448;28;20519;-87
2022/05/12 08:00:22;;;;;;;17.50;10.90;;;;;;;15.24;64.47;101730.19;5225997;28;20273;-86
2022/05/12 08:02:55;;;;;;;14.80;10.00;;;;;;;15.13;63.67;101740.84;5223649;28;20469;-84
2022/05/12 08:05:27;;;;;;;14.27;9.88;;;;;;;15.09;63.87;101733.94;5244750;28;20036;-85
2022/05/12 08:08:01;;;;;;;16.00;10.53;;;;;;;14.95;63.68;101742.03;5246628;28;20010;-84
2022/05/12 08:10:33;;;;;;;16.58;10.32;;;;;;;15.12;62.95;101741.78;5225345;28;20029;-85
2022/05/12 08:13:06;;;;;;;13.90;10.23;;;;;;;15.39;62.89;101747.44;5244926;28;20112;-86
2022/05/12 08:15:37;;;;;;;16.10;9.23;;;;;;;15.61;60.57;101735.63;5229646;28;20034;-86
2022/05/12 08:18:08;;;;;;;12.40;8.93;;;;;;;15.56;59.56;101736.63;5247875;28;20082;-85
2022/05/12 08:20:40;;;;;;;18.40;9.87;;;;;;;15.64;60.06;101750.50;5247571;28;20056;-85
2022/05/12 08:23:12;;;;;;;12.83;8.10;;;;;;;15.43;58.22;101760.50;5246430;28;20172;-87
2022/05/12 08:25:44;;;;;;;14.82;9.57;;;;;;;15.38;59.61;101753.59;5227288;28;20049;-83
2022/05/12 08:28:18;;;;;;;17.40;9.93;;;;;;;15.56;58.47;101745.38;5208244;28;20040;-85
2022/05/12 08:30:50;;;;;;;15.57;9.35;;;;;;;16.12;56.94;101746.97;5240444;28;20056;-87
2022/05/12 08:33:23;;;;;;;14.80;8.63;;;;;;;16.27;55.30;101741.38;5240931;28;20025;-87
2022/05/12 08:35:55;;;;;;;16.48;9.32;;;;;;;16.49;55.53;101756.72;5239664;28;20132;-84
2022/05/12 08:38:27;;;;;;;9.82;7.18;;;;;;;16.24;55.44;101751.97;5209438;28;20060;-86
2022/05/12 08:41:23;;;;;;;13.77;7.22;;;;;;;16.21;53.66;101746.75;5243438;28;20560;-86
2022/05/12 08:43:59;;;;;;;13.15;7.07;;;;;;;16.72;53.50;101751.78;5156667;29;20047;-84
2022/05/12 08:46:34;;;;;;;11.23;6.55;;;;;;;17.26;53.06;101757.59;5156052;29;20070;-85
2022/05/12 08:49:17;;;;;;;15.38;8.60;;;;;;;17.09;51.92;101753.56;5156113;29;20039;-85
2022/05/12 08:52:05;;;;;;;16.38;7.78;;;;;;;16.84;52.67;101742.75;5155872;29;20534;-87
2022/05/12 08:54:42;;;;;;;15.23;7.57;;;;;;;17.60;51.94;101740.88;5154353;29;20043;-83
2022/05/12 08:57:35;;;;;;;14.55;6.15;;;;;;;17.27;50.09;101746.13;5156350;29;20062;-86
2022/05/12 09:00:15;;;;;;;11.52;6.60;;;;;;;17.59;49.88;101760.25;5139649;29;20063;-85
2022/05/12 09:02:47;;;;;;;11.77;5.40;;;;;;;18.14;46.94;101756.09;5137965;29;20043;-84
2022/05/12 09:05:22;;;;;;;10.03;6.13;;;;;;;18.01;49.13;101754.72;5154825;29;20507;-84
2022/05/12 09:08:26;;;;;;;9.98;7.38;;;;;;;18.03;49.20;101760.81;5139529;29;20066;-85
2022/05/12 09:11:14;;;;;;;14.48;7.10;;;;;;;17.63;50.53;101757.47;5158651;28;20086;-85
2022/05/12 09:13:51;;;;;;;13.95;6.97;;;;;;;17.07;50.85;101772.97;5146094;29;20070;-86
2022/05/12 09:16:25;;;;;;;12.93;6.65;;;;;;;16.78;50.92;101770.06;5159577;29;20066;-84
2022/05/12 09:18:59;;;;;;;13.88;5.88;;;;;;;16.71;48.98;101767.63;5159435;29;20441;-86
2022/05/12 09:21:35;;;;;;;11.48;7.00;;;;;;;17.28;48.18;101763.66;5222413;28;20049;-86
2022/05/12 09:24:10;;;;;;;12.13;7.40;;;;;;;17.08;48.01;101761.50;5223883;28;20103;-85
2022/05/12 09:27:06;;;;;;;10.35;5.80;;;;;;;16.83;48.70;101767.34;5241703;28;20479;-84
2022/05/12 09:29:48;;;;;;;10.50;5.95;;;;;;;17.78;47.40;101760.63;5242388;28;20029;-83
2022/05/12 09:32:26;;;;;;;13.45;6.57;;;;;;;18.08;46.52;101751.00;5238842;28;20485;-82
2022/05/12 09:35:09;;;;;;;13.15;7.45;;;;;;;17.75;46.63;101758.91;5239808;28;20396;-84
2022/05/12 09:37:41;;;;;;;9.32;5.97;;;;;;;17.34;46.75;101760.88;5224878;28;20083;-85
2022/05/12 09:40:17;;;;;;;13.38;6.90;;;;;;;16.99;47.86;101767.88;5224464;28;20021;-85
2022/05/12 09:42:56;;;;;;;13.93;6.75;;;;;;;17.04;47.22;101755.47;5241020;28;20120;-83
2022/05/12 09:45:34;;;;;;;12.20;5.72;;;;;;;17.37;45.80;101757.28;5223306;28;20036;-85
2022/05/12 09:48:27;;;;;;;10.98;6.00;;;;;;;17.92;44.60;101755.84;5240292;28;20026;-86
2022/05/12 09:51:22;;;;;;;10.20;5.55;;;;;;;17.82;44.79;101760.50;5242144;28;20052;-87
2022/05/12 09:54:15;;;;;;;8.18;5.05;;;;;;;17.56;44.85;101762.94;5242340;28;20041;-85
2022/05/12 09:57:21;;;;;;;10.77;6.05;;;;;;;19.35;42.24;101747.06;5242181;28;20032;-83
2022/05/12 09:59:58;;;;;;;7.72;3.90;;;;;;;20.71;36.34;101748.28;5243354;28;20048;-85
2022/05/12 10:08:18;;;;;;;;;;;;;;;19.58;38.58;101744.50;5243621;28;20065;-86
2022/05/12 10:11:02;;;;;;;11.23;4.10;;;;;;;19.51;39.16;101750.91;5242018;28;19948;-85
2022/05/12 10:13:53;;;;;;;8.93;4.68;;;;;;;20.70;35.92;101741.25;5224492;28;20140;-83
2022/05/12 10:16:28;;;;;;;5.70;3.10;;;;;;;20.17;35.85;101745.91;5242703;28;20044;-85
2022/05/12 10:19:05;;;;;;;10.52;3.45;;;;;;;19.35;36.83;101755.00;5223731;28;20040;-84
2022/05/12 10:22:07;;;;;;;9.02;2.90;;;;;;;19.15;38.52;101747.75;5224474;28;20100;-84
2022/05/12 10:24:43;;;;;;;11.20;4.40;;;;;;;18.68;40.31;101748.34;5242644;28;20026;-84
2022/05/12 10:27:28;;;;;;;11.63;4.13;;;;;;;18.58;42.36;101755.69;5222941;28;20029;-84
2022/05/12 10:30:26;;;;;;;9.45;3.90;;;;;;;18.56;41.09;101745.19;5241121;28;20384;-83
2022/05/12 10:33:15;;;;;;;8.60;3.78;;;;;;;18.66;39.23;101758.06;5178912;28;20043;-83
2022/05/12 10:36:04;;;;;;;7.95;3.70;;;;;;;20.00;37.67;101757.13;5183532;28;20098;-83
2022/05/12 10:39:05;;;;;;;9.45;3.80;;;;;;;20.62;37.31;101754.75;5183377;28;20102;-82
2022/05/12 10:42:08;;;;;;;7.55;3.70;;;;;;;19.90;37.18;101752.22;5178142;28;20067;-85
2022/05/12 10:45:04;;;;;;;10.63;3.60;;;;;;;19.47;38.23;101749.28;5185702;28;20030;-84
2022/05/12 10:47:58;;;;;;;12.38;3.67;;;;;;;19.13;38.91;101745.16;5181199;28;20133;-84
2022/05/12 10:50:52;;;;;;;7.95;3.22;;;;;;;18.72;39.38;101755.25;5184795;28;20145;-84
2022/05/12 10:54:01;;;;;;;11.02;3.40;;;;;;;18.57;39.91;101746.03;5177131;28;20038;-82
2022/05/12 10:56:43;;;;;;;11.50;3.72;;;;;;;19.78;39.83;101749.09;5176819;28;20595;-84
2022/05/12 10:59:40;;;;;;;8.25;3.15;;;;;;;19.71;36.39;101752.00;5179821;28;20034;-84
2022/05/12 11:02:19;;;;;;;7.10;2.72;;;;;;;19.35;36.19;101747.91;5077918;29;20052;-84
2022/05/12 11:04:55;;;;;;;8.98;4.68;;;;;;;19.13;37.97;101751.28;5077967;29;20056;-83
2022/05/12 11:07:33;;;;;;;7.40;3.97;;;;;;;19.68;37.37;101742.38;5076933;29;20045;-86
2022/05/12 11:10:14;;;;;;;6.45;3.20;;;;;;;21.37;35.35;101742.91;5109257;29;20040;-85
2022/05/12 11:13:26;;;;;;;9.63;3.80;;;;;;;23.52;32.25;101739.00;5136175;29;20150;-86
2022/05/12 11:15:59;;;;;;;9.45;3.70;;;;;;;21.75;32.99;101727.13;5059048;29;20072;-86
2022/05/12 11:18:54;;;;;;;8.82;3.13;;;;;;;21.35;34.48;101727.97;5058208;29;20067;-86
2022/05/12 11:21:29;;;;;;;9.57;3.25;;;;;;;21.66;33.07;101731.03;5057140;29;20561;-85
2022/05/12 11:24:24;;;;;;;8.80;3.42;;;;;;;21.45;32.71;101732.81;5058791;29;20387;-83
2022/05/12 11:27:02;;;;;;;7.53;3.45;;;;;;;19.96;34.80;101739.63;5058659;29;20124;-85
2022/05/12 11:30:16;;;;;;;8.30;3.45;;;;;;;21.24;32.79;101729.28;5058576;29;20116;-82
2022/05/12 11:33:09;;;;;;;8.90;3.28;;;;;;;22.00;31.24;101731.31;5050600;29;20114;-86
2022/05/12 11:35:49;;;;;;;8.65;3.10;;;;;;;22.45;30.82;101726.63;5060936;29;20516;-85
2022/05/12 11:38:48;;;;;;;5.15;2.53;;;;;;;23.12;28.52;101719.81;5075507;29;20043;-85
2022/05/12 11:41:19;;;;;;;16.98;3.60;;;;;;;23.20;29.00;101714.94;5098128;29;20657;-86
2022/05/12 11:44:24;;;;;;;7.77;2.53;;;;;;;23.20;29.69;101706.97;5097906;29;20053;-86
2022/05/12 11:47:10;;;;;;;7.00;2.15;;;;;;;23.44;29.25;101711.94;5098566;29;20470;-87
2022/05/12 11:49:44;;;;;;;7.72;2.40;;;;;;;21.80;30.80;101719.81;5082029;29;20036;-86
2022/05/12 11:52:24;;;;;;;10.10;2.97;;;;;;;21.45;31.66;101711.59;5102358;29;20064;-86
2022/05/12 11:55:01;;;;;;;6.88;2.20;;;;;;;20.81;32.43;101720.47;5172933;28;20042;-86
2022/05/12 11:57:40;;;;;;;16.42;3.17;;;;;;;19.75;33.58;101720.06;5178099;28;20023;-85
2022/05/12 12:00:34;;;;;;;5.10;2.10;;;;;;;20.08;34.03;101721.59;5172154;29;20050;-87
2022/05/12 12:03:23;;;;;;;6.30;2.35;;;;;;;20.58;33.56;101724.03;5163164;29;20067;-87
2022/05/12 12:05:56;;;;;;;9.18;2.45;;;;;;;20.39;32.68;101724.75;5142165;29;20046;-85
2022/05/12 12:08:29;;;;;;;;;;;;;;;20.78;31.81;101725.91;5143236;29;20380;-86
2022/05/12 12:11:13;;;;;;;7.07;2.47;;;;;;;19.89;33.01;101724.91;5141725;29;19986;-85
2022/05/12 12:13:47;;;;;;;10.45;3.22;;;;;;;20.50;32.24;101718.19;5157172;29;20113;-83